Glenpool, Oklahoma
Current Conditions -  °F | °C
As of 5:53 AM on Saturday 01 Nov 2014 (Local Time) from KRVS Reporting Station
Clear Clear  
Wind Chill: -4°   Ceiling: Unl
Heat Index: -1°   Visibility: 10mi
Dew Point: -4°   Wind: 6mph
Humidity: 76%   Direction: 20°NNE
Pressure: 30.46"   Gusts: NA
Location:  35.95°N, 96.01°W
Report Text: KRVS 011053Z AUTO 02005KT 10SM CLR M01/M04 A3046 RMK AO2 SLP321 T10061044
Loading
Personal Weather Stations






























Interactive Weather Map
Tropical Storm Tracking
New forecast layout! Learn more

10-Day Weather Forecast

Advertisements
Track Severe Weather on mobile